Latest Weather Observations for Neptune Island

IDS60801

Issued at 12:31 pm CST Tuesday 3 May 2016 (issued every 30 minutes, with the page automatically refreshed every 10 minutes)

About weather observations | Map of weather stations | Latest weather observations for SA | Other Formats
Station Details ID: 018115 Name: NEPTUNE ISLAND Lat: -35.34 Lon: 136.12 Height: 32.0 m
Data from the previous 72 hours. | See also: Recent months at Neptune Island
Date/Time
CST
Temp
°C
App
Temp
°C
Dew
Point
Rel
Hum
%
Delta-T
°C
Wind Press
QNH
hPa
Press
MSL
hPa
Rain
since 9 am
mm
Dir
 
Spd
km/h
Gust
km/h
Spd
kts
Gust
kts
03/12:30pm 15.5 6.3 13.5 88 1.1 WSW 54 63 29 34 1006.6 1006.6 1.4
03/12:11pm 15.6 7.1 14.3 92 0.7 WSW 52 72 28 39 1006.5 1006.5 1.4
03/12:00pm 15.4 6.4 14.1 92 0.7 WSW 54 67 29 36 1006.4 1006.4 1.4
03/11:46am 15.7 6.5 14.6 93 0.6 WSW 56 69 30 37 1006.4 1006.4 1.0
03/11:30am 17.2 6.7 13.5 79 2.1 W 61 78 33 42 1005.8 1005.8 0.6
03/11:00am 16.8 7.3 13.7 82 1.8 W 56 65 30 35 1006.1 1006.1 0.6
03/10:30am 16.0 5.9 14.7 92 0.7 W 61 80 33 43 1006.0 1006.0 0.6
03/10:08am 16.0 7.9 13.1 83 1.6 WSW 48 78 26 42 1005.5 1005.5 0.4
03/10:00am 17.4 10.3 14.1 81 1.9 WSW 44 52 24 28 1005.5 1005.5 0.0
03/09:45am 17.8 10.0 14.1 79 2.1 W 48 67 26 36 1005.4 1005.4 0.0
03/09:30am 17.9 8.6 13.2 74 2.7 W 54 69 29 37 1005.3 1005.3 0.0
03/09:00am 17.4 6.8 12.1 71 2.9 W 59 70 32 38 1005.1 1005.1 1.8
03/08:30am 17.4 8.4 12.7 74 2.6 W 52 65 28 35 1005.0 1005.0 1.8
03/08:00am 17.2 7.3 12.5 74 2.6 W 56 69 30 37 1004.7 1004.7 1.8
03/07:30am 17.2 6.0 12.3 73 2.7 WSW 63 82 34 44 1004.1 1004.1 1.8
03/07:00am 17.1 6.5 13.2 78 2.2 WSW 61 76 33 41 1003.6 1003.6 1.8
03/06:30am 16.5 5.1 14.2 86 1.3 W 67 85 36 46 1003.1 1003.1 1.8
03/06:26am 16.8 5.3 13.9 83 1.6 W 67 85 36 46 1003.0 1003.0 1.8
03/06:00am 17.0 7.0 14.8 87 1.3 W 61 74 33 40 1003.1 1003.1 1.8
03/05:30am 17.0 7.0 14.8 87 1.3 W 61 80 33 43 1002.6 1002.6 1.8
03/05:00am 16.9 7.3 15.9 94 0.6 WNW 61 83 33 45 1002.8 1002.8 1.6
03/04:30am 17.0 8.1 15.2 89 1.1 WNW 56 72 30 39 1002.9 1002.9 1.4
03/04:12am 17.3 8.5 15.6 90 1.0 NW 56 74 30 40 1002.9 1002.9 1.4
03/04:00am 17.1 7.4 15.6 91 0.9 NW 61 74 33 40 1002.8 1002.8 1.4
03/03:45am 17.3 7.0 15.1 87 1.3 NW 63 83 34 45 1002.6 1002.6 1.4
03/03:30am 17.5 8.5 15.5 88 1.2 NW 57 72 31 39 1002.9 1002.9 1.4
03/03:04am 17.2 8.1 15.2 88 1.2 WNW 57 76 31 41 1003.1 1003.1 1.4
03/03:00am 17.2 7.4 15.4 89 1.1 WNW 61 76 33 41 1003.1 1003.1 1.4
03/02:52am 17.7 7.8 15.1 85 1.5 NW 61 80 33 43 1003.2 1003.2 1.0
03/02:30am 17.7 8.5 14.4 81 1.9 NW 56 69 30 37 1003.4 1003.4 1.0
03/02:00am 16.9 5.6 14.5 86 1.4 WNW 67 85 36 46 1004.0 1004.0 1.0
03/01:48am 17.6 7.6 13.7 78 2.2 NW 59 80 32 43 1003.9 1003.9 1.0
03/01:30am 18.0 7.7 14.1 78 2.2 NW 61 76 33 41 1004.0 1004.0 1.0
03/01:00am 18.1 8.4 14.6 80 2.0 NW 59 74 32 40 1004.4 1004.4 1.0
03/12:30am 18.1 6.9 13.6 75 2.6 NW 65 78 35 42 1004.6 1004.6 1.0
03/12:00am 18.0 7.7 13.9 77 2.3 NW 61 76 33 41 1004.9 1004.9 1.0
 
Date/Time
CST
Temp
°C
App
Temp
°C
Dew
Point
Rel
Hum
%
Delta-T
°C
Wind Press
QNH
hPa
Press
MSL
hPa
Rain
since 9 am
mm
Dir
 
Spd
km/h
Gust
km/h
Spd
kts
Gust
kts
02/11:30pm 18.0 7.0 14.3 79 2.1 NW 65 80 35 43 1005.5 1005.5 1.0
02/11:00pm 17.9 7.8 14.6 81 1.9 NW 61 72 33 39 1006.1 1006.1 1.0
02/10:30pm 17.8 7.7 14.5 81 1.9 NW 61 74 33 40 1006.4 1006.4 1.0
02/10:00pm 17.6 7.3 14.1 80 2.0 NW 61 76 33 41 1006.6 1006.6 1.0
02/09:30pm 17.0 7.1 14.1 83 1.7 NW 59 80 32 43 1006.8 1006.8 1.0
02/09:23pm 17.2 8.8 14.5 84 1.6 WNW 52 72 28 39 1006.9 1006.9 1.0
02/09:00pm 17.3 8.5 14.4 83 1.7 NW 54 70 29 38 1007.2 1007.2 0.8
02/08:49pm 17.5 9.0 14.4 82 1.8 WNW 52 72 28 39 1006.9 1006.9 0.8
02/08:30pm 17.8 8.2 13.9 78 2.2 NW 57 69 31 37 1007.2 1007.2 0.8
02/08:00pm 17.8 8.2 13.9 78 2.2 NW 57 70 31 38 1007.1 1007.1 0.6
02/07:30pm 17.9 8.5 14.0 78 2.2 NW 56 69 30 37 1007.4 1007.4 0.6
02/07:10pm 17.8 8.4 13.9 78 2.2 NW 56 74 30 40 1007.5 1007.5 0.6
02/07:00pm 17.7 7.5 13.2 75 2.5 NW 59 72 32 39 1007.4 1007.4 0.6
02/06:30pm 17.8 7.4 13.7 77 2.3 WNW 61 74 33 40 1007.4 1007.4 0.6
02/06:00pm 17.3 9.7 14.6 84 1.6 NW 48 67 26 36 1007.2 1007.2 0.6
02/05:30pm 17.1 8.8 14.9 87 1.3 WNW 52 63 28 34 1007.1 1007.1 0.6
02/05:09pm 17.0 7.8 13.3 79 2.1 WNW 54 80 29 43 1007.2 1007.2 0.0
02/05:00pm 17.9 9.1 14.4 80 2.0 WNW 54 65 29 35 1007.2 1007.2 0.0
02/04:30pm 17.9 10.4 15.0 83 1.7 WNW 48 59 26 32 1007.4 1007.4 0.0
02/04:00pm 18.1 9.6 14.4 79 2.1 WNW 52 65 28 35 1007.4 1007.4 0.0
02/03:30pm 18.0 10.3 14.5 80 2.0 NW 48 57 26 31 1007.6 1007.6 0.0
02/03:00pm 18.0 9.0 14.1 78 2.2 WNW 54 63 29 34 1008.0 1008.0 0.0
02/02:30pm 17.9 8.8 13.8 77 2.3 WNW 54 80 29 43 1008.0 1008.0 0.0
02/02:00pm 18.5 9.8 13.8 74 2.7 WNW 52 65 28 35 1008.3 1008.3 0.0
02/01:43pm 18.5 10.0 14.2 76 2.5 WNW 52 70 28 38 1008.6 1008.6 0.0
02/01:30pm 18.5 9.4 13.8 74 2.7 WNW 54 65 29 35 1008.7 1008.7 0.0
02/01:00pm 17.8 11.0 14.9 83 1.7 NW 44 59 24 32 1009.0 1009.0 0.0
02/12:30pm 18.4 10.3 14.5 78 2.3 WNW 50 61 27 33 1009.5 1009.5 0.0
02/12:00pm 18.1 9.9 14.2 78 2.2 WNW 50 61 27 33 1009.8 1009.8 0.0
02/11:39am 17.8 10.2 13.7 77 2.3 WNW 46 67 25 36 1010.0 1010.0 0.0
02/11:30am 18.2 10.7 15.1 82 1.8 WNW 48 57 26 31 1010.1 1010.1 0.0
02/11:00am 17.9 10.4 14.0 78 2.2 WNW 46 59 25 32 1010.2 1010.2 0.0
02/10:30am 16.9 10.1 14.4 85 1.4 NW 43 54 23 29 1010.4 1010.4 0.0
02/10:00am 17.0 10.5 15.2 89 1.0 NNW 43 54 23 29 1010.9 1010.9 0.0
02/09:30am 16.4 9.5 14.4 88 1.1 NNW 44 54 24 29 1011.0 1011.0 0.0
02/09:00am 16.0 8.9 14.0 88 1.1 NNW 44 54 24 29 1011.2 1011.2 2.2
02/08:30am 15.9 9.1 14.3 90 0.9 NNW 43 52 23 28 1011.3 1011.3 2.2
02/08:00am 16.3 7.7 12.8 80 1.9 NW 50 57 27 31 1011.1 1011.1 2.2
02/07:30am 15.3 7.5 13.0 86 1.3 NW 46 59 25 32 1011.2 1011.2 1.8
02/07:00am 15.5 8.5 13.7 89 1.0 NW 43 48 23 26 1010.9 1010.9 0.6
02/06:30am 14.8 7.6 13.2 90 0.9 NNW 43 57 23 31 1011.0 1011.0 0.6
02/06:27am 15.4 9.4 13.4 88 1.1 NNW 37 56 20 30 1011.0 1011.0 0.6
02/06:00am 15.1 7.9 13.1 88 1.1 NNW 43 54 23 29 1011.2 1011.2 0.6
02/05:30am 15.6 8.3 12.9 84 1.5 NW 43 54 23 29 1011.2 1011.2 0.6
02/05:00am 15.7 9.3 13.2 85 1.4 NW 39 48 21 26 1011.3 1011.3 0.6
02/04:30am 15.1 9.8 13.1 88 1.1 NW 33 43 18 23 1011.6 1011.6 0.6
02/04:00am 15.3 8.8 13.0 86 1.3 NNW 39 44 21 24 1011.7 1011.7 0.4
02/03:30am 15.1 7.6 12.8 86 1.3 NNW 44 54 24 29 1011.6 1011.6 0.4
02/03:00am 14.7 7.6 12.2 85 1.4 NNW 41 48 22 26 1012.3 1012.3 0.4
02/02:30am 14.6 7.8 12.1 85 1.4 NNW 39 50 21 27 1012.8 1012.8 0.2
02/02:00am 14.9 8.0 11.7 81 1.7 NNW 39 48 21 26 1013.2 1013.2 0.2
02/01:30am 14.0 8.5 11.7 86 1.2 NNW 32 39 17 21 1013.9 1013.9 0.2
02/01:00am 14.9 7.7 12.0 83 1.6 NNW 41 61 22 33 1014.0 1014.0 0.0
02/12:30am 14.9 8.6 9.7 71 2.7 NNW 33 39 18 21 1014.4 1014.4 0.0
02/12:00am 15.1 8.7 10.7 75 2.3 NNW 35 43 19 23 1014.7 1014.7 0.0
 
Date/Time
CST
Temp
°C
App
Temp
°C
Dew
Point
Rel
Hum
%
Delta-T
°C
Wind Press
QNH
hPa
Press
MSL
hPa
Rain
since 9 am
mm
Dir
 
Spd
km/h
Gust
km/h
Spd
kts
Gust
kts
01/11:30pm 14.1 9.8 9.3 73 2.5 NNW 22 26 12 14 1015.5 1015.4 0.0
01/11:00pm 14.4 9.3 9.2 71 2.7 NNW 26 33 14 18 1015.8 1015.7 0.0
01/10:43pm 14.1 7.0 9.5 74 2.4 NNW 37 48 20 26 1015.9 1015.8 0.0
01/10:30pm 14.1 5.7 11.1 82 1.6 NW 46 56 25 30 1016.2 1016.1 0.0
01/10:16pm 15.4 8.8 11.2 76 2.2 NNW 37 56 20 30 1016.2 1016.1 0.0
01/10:00pm 15.3 9.7 10.1 71 2.7 NNW 30 37 16 20 1016.4 1016.3 0.0
01/09:30pm 14.8 8.8 10.0 73 2.5 NNW 32 37 17 20 1016.6 1016.5 0.0
01/09:00pm 15.5 10.6 8.5 63 3.5 WNW 24 30 13 16 1016.6 1016.5 0.0
01/08:30pm 15.7 10.0 8.4 62 3.7 WNW 28 35 15 19 1016.7 1016.6 0.0
01/08:00pm 15.6 11.0 8.1 61 3.8 WNW 22 28 12 15 1016.8 1016.7 0.0
01/07:30pm 15.6 10.2 7.9 60 3.9 W 26 30 14 16 1017.0 1016.9 0.0
01/07:00pm 15.6 10.3 8.4 62 3.6 WNW 26 32 14 17 1017.0 1016.9 0.0
01/06:30pm 15.5 10.1 8.0 61 3.8 W 26 35 14 19 1016.8 1016.7 0.0
01/06:00pm 15.6 10.7 8.4 62 3.6 W 24 32 13 17 1016.7 1016.6 0.0
01/05:30pm 15.8 11.6 8.1 60 3.9 WNW 20 30 11 16 1016.5 1016.4 0.0
01/05:00pm 15.7 11.1 8.0 60 3.9 W 22 26 12 14 1016.5 1016.4 0.0
01/04:30pm 15.8 10.9 6.8 55 4.4 W 22 30 12 16 1016.6 1016.5 0.0
01/04:00pm 16.2 11.2 8.2 59 4.1 W 24 30 13 16 1016.6 1016.5 0.0
01/03:30pm 16.4 12.0 7.6 56 4.4 W 20 30 11 16 1016.4 1016.3 0.0
01/03:00pm 16.3 12.0 8.0 58 4.2 W 20 28 11 15 1016.5 1016.4 0.0
01/02:30pm 16.4 12.3 8.6 60 4.0 WSW 20 24 11 13 1016.5 1016.4 0.0
01/02:00pm 16.6 11.7 8.6 59 4.1 WSW 24 30 13 16 1016.4 1016.3 0.0
01/01:30pm 16.9 11.7 8.8 59 4.2 WSW 26 30 14 16 1016.4 1016.3 0.0
01/01:00pm 16.3 10.1 6.2 51 4.9 WSW 28 35 15 19 1016.6 1016.5 0.0
01/12:30pm 16.2 9.7 8.2 59 4.0 WSW 32 37 17 20 1016.7 1016.6 0.0
01/12:00pm 15.5 8.9 8.5 63 3.5 WSW 33 41 18 22 1017.1 1017.0 0.0
01/11:30am 15.3 9.6 9.7 69 2.9 SW 30 43 16 23 1017.0 1016.9 0.0
01/11:00am 16.0 10.5 7.7 58 4.2 WSW 26 30 14 16 1017.2 1017.1 0.0
01/10:30am 15.7 8.6 8.0 60 3.9 WSW 35 43 19 23 1016.8 1016.7 0.0
01/10:00am 15.5 7.7 6.8 56 4.3 SW 37 43 20 23 1016.8 1016.7 0.0
01/09:30am 15.4 8.6 7.7 60 3.8 SW 33 43 18 23 1016.7 1016.6 0.0
01/09:00am 14.9 8.3 8.4 65 3.3 SW 33 43 18 23 1016.6 1016.5 3.6
01/08:30am 14.6 6.0 8.8 68 2.9 WSW 44 56 24 30 1016.2 1016.1 3.6
01/08:00am 14.9 6.6 9.3 69 2.9 WSW 43 52 23 28 1015.8 1015.7 3.6
01/07:30am 14.5 5.0 6.8 60 3.7 SW 46 54 25 29 1015.1 1015.1 3.6
01/07:00am 14.4 5.4 8.8 69 2.8 SW 46 57 25 31 1014.7 1014.7 3.6
01/06:30am 14.5 5.4 8.5 67 3.0 WSW 46 65 25 35 1014.3 1014.3 3.6
01/06:06am 14.6 4.8 10.0 74 2.4 WSW 52 74 28 40 1013.5 1013.5 3.4
01/06:00am 14.7 5.8 7.5 62 3.6 WSW 44 59 24 32 1013.6 1013.6 3.4
01/05:58am 14.3 5.7 8.9 70 2.7 SW 44 57 24 31 1013.8 1013.8 3.4
01/05:31am 14.4 3.3 8.8 69 2.8 WSW 57 83 31 45 1012.9 1012.9 3.4
01/05:30am 15.0 4.3 9.6 70 2.8 WSW 56 69 30 37 1013.0 1013.0 3.4
01/05:00am 15.0 3.7 8.0 63 3.5 WSW 57 65 31 35 1012.5 1012.5 3.4
01/04:30am 14.2 2.5 7.7 65 3.2 WSW 59 72 32 39 1012.0 1012.0 3.4
01/04:18am 14.9 3.8 8.8 67 3.1 WSW 57 82 31 44 1011.3 1011.3 3.4
01/04:00am 14.8 3.6 8.3 65 3.3 W 57 72 31 39 1011.1 1011.1 3.4
01/03:30am 14.7 1.6 8.2 65 3.3 WSW 67 80 36 43 1010.6 1010.6 3.4
01/03:00am 14.5 2.7 9.1 70 2.8 WSW 61 72 33 39 1010.2 1010.2 3.4
01/02:30am 15.0 2.7 8.7 66 3.2 WSW 63 78 34 42 1009.8 1009.8 3.4
01/02:00am 14.7 2.0 8.6 67 3.1 W 65 78 35 42 1009.3 1009.3 3.4
01/01:30am 14.7 2.3 9.5 71 2.7 WSW 65 76 35 41 1009.1 1009.1 3.4
01/01:01am 13.9 3.8 10.3 79 1.9 W 54 76 29 41 1008.8 1008.8 3.4
01/01:00am 14.3 4.9 11.6 84 1.4 W 52 67 28 36 1008.9 1008.9 3.4
01/12:44am 14.0 3.4 9.8 76 2.2 WSW 56 87 30 47 1008.5 1008.5 2.8
01/12:30am 14.7 3.0 10.7 77 2.1 WSW 63 74 34 40 1008.4 1008.4 2.2
01/12:15am 14.8 5.1 10.6 76 2.2 W 52 78 28 42 1008.3 1008.3 2.2
01/12:00am 14.1 2.2 9.9 76 2.2 W 63 78 34 42 1008.5 1008.5 2.2
 
Date/Time
CST
Temp
°C
App
Temp
°C
Dew
Point
Rel
Hum
%
Delta-T
°C
Wind Press
QNH
hPa
Press
MSL
hPa
Rain
since 9 am
mm
Dir
 
Spd
km/h
Gust
km/h
Spd
kts
Gust
kts
30/11:51pm 14.4 3.6 10.0 75 2.3 W 57 78 31 42 1008.2 1008.2 2.0
30/11:30pm 15.1 4.7 11.5 79 1.9 W 57 72 31 39 1008.3 1008.3 2.0
30/11:00pm 14.2 3.8 11.2 82 1.6 W 57 69 31 37 1008.2 1008.2 2.0
30/10:30pm 15.5 5.5 10.7 73 2.6 W 54 63 29 34 1007.9 1007.9 1.4
30/10:00pm 15.2 3.7 10.2 72 2.6 WSW 61 69 33 37 1007.7 1007.7 1.4
30/09:30pm 14.2 4.0 11.9 86 1.2 WSW 57 72 31 39 1007.7 1007.7 1.4
30/09:06pm 14.7 2.9 10.5 76 2.2 W 63 85 34 46 1006.8 1006.8 1.4
30/09:00pm 15.7 4.6 11.7 77 2.2 WNW 61 74 33 40 1006.8 1006.8 1.4
30/08:30pm 14.8 4.3 12.3 85 1.4 W 59 74 32 40 1006.7 1006.7 1.4
30/08:22pm 14.8 3.6 12.5 86 1.3 W 63 82 34 44 1006.4 1006.4 1.4
30/08:00pm 15.8 5.3 12.4 80 1.9 WNW 59 72 32 39 1005.9 1005.9 1.4
30/07:30pm 15.6 6.5 12.5 82 1.7 WNW 52 61 28 33 1006.0 1006.0 1.4
30/07:00pm 15.1 6.4 12.6 85 1.4 W 50 65 27 35 1005.6 1005.6 1.4
30/06:30pm 15.5 6.2 13.0 85 1.4 WNW 54 69 29 37 1005.2 1005.2 0.2
30/06:00pm 16.5 7.6 14.2 86 1.3 WNW 54 67 29 36 1004.5 1004.4 0.0
30/05:30pm 18.0 5.9 13.1 73 2.8 WNW 69 91 37 49 1003.8 1003.7 0.0
30/05:27pm 18.2 5.2 12.2 68 3.3 NW 72 91 39 49 1003.5 1003.4 0.0
30/05:24pm 18.8 5.8 12.3 66 3.6 NW 72 91 39 49 1003.2 1003.1 0.0
30/05:08pm 20.4 10.2 12.1 59 4.6 NNW 57 76 31 41 1003.1 1003.0 0.0
30/05:00pm 20.3 10.6 11.8 58 4.7 NNW 54 67 29 36 1003.2 1003.1 0.0
30/04:30pm 20.5 12.0 12.0 58 4.8 NNW 48 59 26 32 1003.1 1003.0 0.0
30/04:00pm 20.1 11.6 13.1 64 4.0 NW 50 57 27 31 1003.6 1003.5 0.0
30/03:30pm 20.7 12.0 12.4 59 4.7 NW 50 65 27 35 1003.3 1003.2 0.0
30/03:00pm 21.3 14.1 13.0 59 4.8 NW 43 52 23 28 1003.5 1003.4 0.0
30/02:40pm 22.0 13.5 10.8 49 6.2 NW 46 65 25 35 1003.5 1003.4 0.0
30/02:30pm 22.0 14.0 12.3 54 5.5 NW 46 54 25 29 1003.7 1003.6 0.0
30/02:00pm 22.1 15.8 12.4 54 5.5 NNW 37 43 20 23 1004.1 1004.0 0.0
30/01:30pm 22.3 17.6 13.1 56 5.3 N 30 37 16 20 1004.8 1004.7 0.0
30/01:00pm 21.8 15.7 12.9 57 5.1 N 37 44 20 24 1005.3 1005.3 0.0

Other Formats:

Comma delimited format used in spreadsheet applications
http://www.bom.gov.au/fwo/IDS60801/IDS60801.94804.axf

JavaScript Object Notation format (JSON) in row-major order
http://www.bom.gov.au/fwo/IDS60801/IDS60801.94804.json